Time;durP1;ratioP1;P1;durP2;ratioP2;P2;SDS_P1;SDS_P2;PMS_P1;PMS_P2;Temp;Humidity;BMP_temperature;BMP_pressure;BME280_temperature;BME280_humidity;BME280_pressure;Samples;Min_cycle;Max_cycle;Signal;HPM_P1;HPM_P2
2023/10/12 00:01:57;;;;;;;232.33;79.33;;;;;;;;;;4974400;28;20450;-48
2023/10/12 00:04:24;;;;;;;236.70;83.63;;;;;;;;;;4976128;28;20514;-47
2023/10/12 00:06:51;;;;;;;230.77;77.83;;;;;;;;;;4976225;28;20466;-48
2023/10/12 00:09:19;;;;;;;234.53;82.33;;;;;;;;;;4976284;28;20428;-48
2023/10/12 00:11:57;;;;;;;232.43;79.83;;;;;;;;;;4972570;28;20425;-47
2023/10/12 00:14:23;;;;;;;231.77;79.83;;;;;;;;;;4975989;28;20910;-48
2023/10/12 00:16:52;;;;;;;231.10;78.33;;;;;;;;;;4976199;28;20834;-48
2023/10/12 00:19:18;;;;;;;233.30;83.33;;;;;;;;;;4976191;28;20467;-47
2023/10/12 00:21:44;;;;;;;232.77;78.60;;;;;;;;;;4974758;28;20514;-47
2023/10/12 00:24:13;;;;;;;235.20;85.33;;;;;;;;;;4976086;28;20535;-47
2023/10/12 00:26:42;;;;;;;234.50;80.67;;;;;;;;;;4975866;28;20459;-49
2023/10/12 00:29:08;;;;;;;234.40;81.70;;;;;;;;;;4976097;28;20426;-47
2023/10/12 00:31:37;;;;;;;233.83;80.73;;;;;;;;;;4976131;28;20800;-47
2023/10/12 00:34:03;;;;;;;233.60;80.00;;;;;;;;;;4976060;28;20459;-47
2023/10/12 00:36:29;;;;;;;237.97;85.67;;;;;;;;;;4975740;28;20469;-47
2023/10/12 00:38:56;;;;;;;235.07;82.67;;;;;;;;;;4975772;28;20423;-47
2023/10/12 00:41:27;;;;;;;234.20;81.83;;;;;;;;;;4975848;28;20427;-47
2023/10/12 00:44:05;;;;;;;232.73;80.13;;;;;;;;;;4975414;28;20442;-47
2023/10/12 00:49:14;;;;;;;232.50;78.50;;;;;;;;;;4976206;28;20778;-47
2023/10/12 00:51:40;;;;;;;234.93;80.93;;;;;;;;;;4974932;28;20459;-47
2023/10/12 00:54:10;;;;;;;233.27;79.77;;;;;;;;;;4975217;28;20473;-48
2023/10/12 00:56:36;;;;;;;236.10;82.33;;;;;;;;;;4975295;28;20455;-47
2023/10/12 00:59:03;;;;;;;233.57;81.93;;;;;;;;;;4975453;28;20888;-47
2023/10/12 01:01:32;;;;;;;240.20;87.20;;;;;;;;;;4974303;28;20569;-47
2023/10/12 01:03:58;;;;;;;229.80;73.70;;;;;;;;;;4968191;28;20433;-48
2023/10/12 01:08:57;;;;;;;232.67;78.47;;;;;;;;;;4975403;28;20424;-47
2023/10/12 01:11:26;;;;;;;234.00;75.50;;;;;;;;;;4974981;28;20427;-47
2023/10/12 01:19:20;;;;;;;236.27;81.00;;;;;;;;;;4975021;28;20419;-47
2023/10/12 01:21:47;;;;;;;232.10;75.00;;;;;;;;;;4970887;28;20508;-46
2023/10/12 01:24:13;;;;;;;236.10;81.77;;;;;;;;;;4974713;28;20927;-48
2023/10/12 01:26:43;;;;;;;230.90;76.83;;;;;;;;;;4974572;28;20462;-46
2023/10/12 01:29:17;;;;;;;232.93;76.97;;;;;;;;;;4974879;28;20429;-47
2023/10/12 01:31:49;;;;;;;231.47;75.93;;;;;;;;;;4974703;28;20435;-46
2023/10/12 01:34:17;;;;;;;234.43;79.23;;;;;;;;;;4974539;28;20435;-47
2023/10/12 01:36:43;;;;;;;230.87;75.80;;;;;;;;;;4974654;28;20418;-49
2023/10/12 01:39:14;;;;;;;231.23;76.43;;;;;;;;;;4974708;28;20469;-47
2023/10/12 01:41:59;;;;;;;228.00;71.80;;;;;;;;;;4968436;28;20438;-46
2023/10/12 01:44:25;;;;;;;227.60;71.13;;;;;;;;;;4974213;28;20447;-46
2023/10/12 01:46:51;;;;;;;233.07;78.60;;;;;;;;;;4974400;28;20456;-46
2023/10/12 01:49:19;;;;;;;231.73;73.70;;;;;;;;;;4974889;28;20418;-47
2023/10/12 01:51:45;;;;;;;236.67;82.23;;;;;;;;;;4966490;28;20423;-47
2023/10/12 01:54:14;;;;;;;232.23;73.27;;;;;;;;;;4974045;28;20461;-47
2023/10/12 01:56:40;;;;;;;227.03;69.27;;;;;;;;;;4974518;28;20442;-48
2023/10/12 01:59:06;;;;;;;231.83;76.87;;;;;;;;;;4974287;28;20410;-47
2023/10/12 02:01:33;;;;;;;230.73;72.57;;;;;;;;;;4974258;28;20453;-47
2023/10/12 02:04:02;;;;;;;227.77;68.67;;;;;;;;;;4974577;28;20870;-47
2023/10/12 02:06:31;;;;;;;230.37;71.93;;;;;;;;;;4973793;28;20437;-47
2023/10/12 02:09:08;;;;;;;232.47;75.00;;;;;;;;;;4974072;28;20409;-46
2023/10/12 02:11:44;;;;;;;230.97;71.77;;;;;;;;;;4974255;28;20860;-47
2023/10/12 02:14:22;;;;;;;229.07;68.37;;;;;;;;;;4973387;28;20906;-47
2023/10/12 02:16:54;;;;;;;233.20;75.13;;;;;;;;;;4966361;28;20421;-47
2023/10/12 02:19:31;;;;;;;229.30;69.27;;;;;;;;;;4973864;28;20409;-47
2023/10/12 02:22:01;;;;;;;229.00;68.07;;;;;;;;;;4973708;28;20412;-47
2023/10/12 02:24:27;;;;;;;231.63;72.47;;;;;;;;;;4973226;28;20943;-49
2023/10/12 02:26:53;;;;;;;227.43;67.67;;;;;;;;;;4973725;28;20460;-47
2023/10/12 02:29:19;;;;;;;230.07;68.97;;;;;;;;;;4973640;28;20409;-47
2023/10/12 02:34:18;;;;;;;227.73;66.70;;;;;;;;;;4973535;28;20899;-46
2023/10/12 02:39:42;;;;;;;228.27;68.40;;;;;;;;;;4973704;28;20893;-47
2023/10/12 02:42:17;;;;;;;226.80;66.27;;;;;;;;;;4973649;28;20555;-48
2023/10/12 02:47:23;;;;;;;229.67;68.47;;;;;;;;;;4973372;28;20460;-47
2023/10/12 02:50:01;;;;;;;227.37;64.57;;;;;;;;;;4973450;28;20536;-47
2023/10/12 02:52:30;;;;;;;231.90;70.40;;;;;;;;;;4973250;28;20405;-47
2023/10/12 02:54:56;;;;;;;229.23;67.53;;;;;;;;;;4971846;28;20805;-46
2023/10/12 02:57:25;;;;;;;227.70;66.50;;;;;;;;;;4973261;28;20416;-48
2023/10/12 03:00:00;;;;;;;230.17;68.33;;;;;;;;;;4973228;28;20415;-47
2023/10/12 03:02:32;;;;;;;227.17;64.07;;;;;;;;;;4972884;28;20507;-46
2023/10/12 03:05:07;;;;;;;226.70;64.63;;;;;;;;;;4972914;28;20429;-47
2023/10/12 03:07:39;;;;;;;228.00;65.07;;;;;;;;;;4972854;28;20492;-47
2023/10/12 03:10:07;;;;;;;227.17;64.93;;;;;;;;;;4973132;28;20514;-48
2023/10/12 03:12:35;;;;;;;232.20;68.67;;;;;;;;;;4972440;28;20425;-47
2023/10/12 03:15:11;;;;;;;227.10;65.57;;;;;;;;;;4972769;28;20784;-47
2023/10/12 03:17:41;;;;;;;226.70;65.03;;;;;;;;;;4972978;28;20404;-47
2023/10/12 03:20:22;;;;;;;226.87;65.00;;;;;;;;;;4973051;28;20407;-47
2023/10/12 03:22:52;;;;;;;230.77;69.07;;;;;;;;;;4972056;28;20424;-48
2023/10/12 03:25:37;;;;;;;225.30;64.40;;;;;;;;;;4972855;28;20448;-48
2023/10/12 03:28:28;;;;;;;228.47;67.93;;;;;;;;;;4967277;28;20862;-46
2023/10/12 03:30:53;;;;;;;225.77;62.37;;;;;;;;;;4965612;28;20825;-48
2023/10/12 03:33:19;;;;;;;231.90;70.30;;;;;;;;;;4972283;28;20844;-47
2023/10/12 03:35:57;;;;;;;229.30;69.00;;;;;;;;;;4965097;28;20400;-47
2023/10/12 03:38:25;;;;;;;229.40;68.70;;;;;;;;;;4976913;28;20416;-48
2023/10/12 03:41:39;;;;;;;226.83;65.37;;;;;;;;;;4976717;28;20603;-49
2023/10/12 03:43:40;;;;;;;227.37;65.93;;;;;;;;;;4976054;28;20438;-48
2023/10/12 03:53:56;;;;;;;227.87;65.27;;;;;;;;;;4976190;28;20942;-46
2023/10/12 03:56:23;;;;;;;231.47;69.30;;;;;;;;;;4976444;28;20438;-47
2023/10/12 03:58:58;;;;;;;230.27;67.43;;;;;;;;;;4976519;28;20474;-48
2023/10/12 04:01:41;;;;;;;230.17;68.87;;;;;;;;;;4975418;28;20406;-47
2023/10/12 04:07:06;;;;;;;231.60;67.13;;;;;;;;;;4976116;28;20585;-47
2023/10/12 04:09:34;;;;;;;225.93;63.30;;;;;;;;;;4974649;28;20409;-47
2023/10/12 04:14:55;;;;;;;227.27;63.30;;;;;;;;;;4973888;28;20493;-47
2023/10/12 04:25:12;;;;;;;230.40;66.37;;;;;;;;;;4975694;28;20446;-48
2023/10/12 04:27:39;;;;;;;230.47;69.60;;;;;;;;;;4975883;28;20474;-47
2023/10/12 04:30:19;;;;;;;231.57;69.60;;;;;;;;;;4975983;28;20908;-47
2023/10/12 04:38:08;;;;;;;228.50;64.23;;;;;;;;;;4949617;28;20464;-47
2023/10/12 04:40:43;;;;;;;227.20;64.53;;;;;;;;;;4975741;28;20441;-48
2023/10/12 04:43:10;;;;;;;227.07;63.30;;;;;;;;;;4975247;28;20192;-47
2023/10/12 04:48:22;;;;;;;226.20;62.20;;;;;;;;;;4975552;28;20600;-47
2023/10/12 04:50:59;;;;;;;227.27;63.63;;;;;;;;;;4975581;28;20408;-48
2023/10/12 04:53:35;;;;;;;228.47;65.03;;;;;;;;;;4975141;28;20457;-48
2023/10/12 04:56:09;;;;;;;227.27;65.07;;;;;;;;;;4975562;28;20547;-47
2023/10/12 04:58:36;;;;;;;228.60;66.17;;;;;;;;;;4975303;28;20773;-46
2023/10/12 05:01:20;;;;;;;225.77;62.83;;;;;;;;;;4975442;28;20418;-48
2023/10/12 05:04:07;;;;;;;226.93;62.63;;;;;;;;;;4975015;28;20422;-46
2023/10/12 05:06:34;;;;;;;225.30;61.40;;;;;;;;;;4973479;28;20984;-47
2023/10/12 05:09:10;;;;;;;228.67;64.70;;;;;;;;;;4975130;28;20409;-47
2023/10/12 05:11:36;;;;;;;228.77;63.83;;;;;;;;;;4975129;28;20500;-48
2023/10/12 05:14:11;;;;;;;227.43;65.40;;;;;;;;;;4974765;28;20536;-48
2023/10/12 05:16:42;;;;;;;227.40;63.60;;;;;;;;;;4975096;28;20435;-48
2023/10/12 05:19:08;;;;;;;224.20;61.00;;;;;;;;;;4975473;28;20485;-47
2023/10/12 05:21:34;;;;;;;225.75;63.33;;;;;;;;;;4975090;28;20433;-48
2023/10/12 05:24:00;;;;;;;225.93;62.30;;;;;;;;;;4974469;28;20686;-48
2023/10/12 05:26:26;;;;;;;231.20;69.20;;;;;;;;;;4974729;28;20419;-49
2023/10/12 05:29:17;;;;;;;225.70;62.37;;;;;;;;;;4974918;28;20426;-48
2023/10/12 05:31:49;;;;;;;224.57;60.50;;;;;;;;;;4974796;28;20402;-48
2023/10/12 05:34:26;;;;;;;227.87;64.33;;;;;;;;;;4974531;28;20820;-47
2023/10/12 05:36:52;;;;;;;229.90;67.73;;;;;;;;;;4972424;28;20414;-47
2023/10/12 05:39:20;;;;;;;230.27;65.67;;;;;;;;;;4974640;28;20429;-47
2023/10/12 05:41:47;;;;;;;231.60;67.53;;;;;;;;;;4966682;28;20939;-48
2023/10/12 05:44:15;;;;;;;232.23;69.30;;;;;;;;;;4974241;28;20470;-48
2023/10/12 05:46:44;;;;;;;229.07;64.87;;;;;;;;;;4974443;28;20454;-48
2023/10/12 05:49:13;;;;;;;228.55;63.55;;;;;;;;;;4974538;28;20426;-48
2023/10/12 05:51:39;;;;;;;227.60;61.47;;;;;;;;;;4974317;28;20172;-48
2023/10/12 05:54:07;;;;;;;232.27;65.40;;;;;;;;;;4974125;28;20467;-49
2023/10/12 05:56:36;;;;;;;230.30;63.00;;;;;;;;;;4974289;28;20873;-47
2023/10/12 05:59:12;;;;;;;230.37;61.90;;;;;;;;;;4973753;28;20523;-48
2023/10/12 06:01:38;;;;;;;234.15;69.25;;;;;;;;;;4974198;28;20401;-47
2023/10/12 06:04:07;;;;;;;232.47;63.70;;;;;;;;;;4973808;28;20193;-49
2023/10/12 06:06:41;;;;;;;231.97;63.93;;;;;;;;;;4973869;28;20422;-48
2023/10/12 06:09:15;;;;;;;231.67;63.67;;;;;;;;;;4974232;28;20413;-47
2023/10/12 06:11:46;;;;;;;231.05;62.33;;;;;;;;;;4973990;28;20886;-48
2023/10/12 06:14:14;;;;;;;233.67;64.90;;;;;;;;;;4973544;28;20288;-49
2023/10/12 06:16:40;;;;;;;229.83;60.77;;;;;;;;;;4973881;28;20416;-47
2023/10/12 06:19:21;;;;;;;230.03;61.17;;;;;;;;;;4973911;28;20533;-48
2023/10/12 06:21:50;;;;;;;231.93;63.83;;;;;;;;;;4972395;28;20782;-47
2023/10/12 06:24:21;;;;;;;233.00;65.67;;;;;;;;;;4973465;28;20429;-47
2023/10/12 06:26:47;;;;;;;232.93;65.90;;;;;;;;;;4967369;28;20461;-48
2023/10/12 06:29:24;;;;;;;230.17;60.77;;;;;;;;;;4973574;28;20928;-47
2023/10/12 06:31:52;;;;;;;232.60;65.23;;;;;;;;;;4972543;28;20437;-47
2023/10/12 06:34:21;;;;;;;229.27;61.37;;;;;;;;;;4972822;28;20445;-47
2023/10/12 06:36:48;;;;;;;230.27;65.13;;;;;;;;;;4965268;28;20428;-48
2023/10/12 06:44:27;;;;;;;228.73;63.17;;;;;;;;;;4973348;28;20480;-48
2023/10/12 06:46:54;;;;;;;233.97;70.07;;;;;;;;;;4963775;28;20898;-48
2023/10/12 06:49:24;;;;;;;231.43;68.93;;;;;;;;;;4973136;28;20417;-48
2023/10/12 06:52:09;;;;;;;230.43;66.22;;;;;;;;;;4964770;28;20544;-49
2023/10/12 07:02:42;;;;;;;228.67;65.37;;;;;;;;;;4970583;28;20892;-48
2023/10/12 07:05:09;;;;;;;228.43;63.67;;;;;;;;;;4972965;28;20476;-48
2023/10/12 07:07:40;;;;;;;230.70;67.80;;;;;;;;;;4973000;28;20530;-48
2023/10/12 07:12:49;;;;;;;230.40;63.70;;;;;;;;;;4971953;28;20422;-48
2023/10/12 07:15:23;;;;;;;231.70;66.43;;;;;;;;;;4973061;28;20187;-47
2023/10/12 07:17:49;;;;;;;228.13;64.10;;;;;;;;;;4973092;28;20486;-48
2023/10/12 07:20:40;;;;;;;230.57;64.03;;;;;;;;;;4972966;28;20467;-48
2023/10/12 07:23:15;;;;;;;235.50;72.30;;;;;;;;;;4972487;28;20425;-49
2023/10/12 07:25:45;;;;;;;231.93;67.23;;;;;;;;;;4972892;28;20397;-48
2023/10/12 07:28:25;;;;;;;229.52;66.15;;;;;;;;;;4972790;28;20471;-48
2023/10/12 07:33:36;;;;;;;232.73;70.93;;;;;;;;;;4972706;28;20428;-47
2023/10/12 07:36:11;;;;;;;229.40;65.27;;;;;;;;;;4972864;28;20410;-48
2023/10/12 07:38:37;;;;;;;232.67;69.80;;;;;;;;;;4972849;28;20412;-48
2023/10/12 07:41:09;;;;;;;230.03;65.93;;;;;;;;;;4972743;28;20411;-48
2023/10/12 07:43:38;;;;;;;227.50;63.50;;;;;;;;;;4972307;28;20429;-48
2023/10/12 07:46:13;;;;;;;229.43;67.80;;;;;;;;;;4972686;28;20482;-48
2023/10/12 07:48:44;;;;;;;231.48;69.30;;;;;;;;;;4972588;28;20990;-47
2023/10/12 07:51:16;;;;;;;228.90;64.17;;;;;;;;;;4972667;28;20208;-48
2023/10/12 07:53:57;;;;;;;234.10;71.47;;;;;;;;;;4972376;28;20421;-48
2023/10/12 07:56:24;;;;;;;231.33;68.23;;;;;;;;;;4970250;28;20414;-50
2023/10/12 07:58:59;;;;;;;226.85;63.83;;;;;;;;;;4972638;28;20404;-48
2023/10/12 08:03:52;;;;;;;228.57;66.33;;;;;;;;;;4972135;28;20585;-48
2023/10/12 08:06:23;;;;;;;227.07;63.47;;;;;;;;;;4972421;28;20524;-48
2023/10/12 08:08:51;;;;;;;230.57;68.33;;;;;;;;;;4965356;28;20895;-47
2023/10/12 08:11:31;;;;;;;229.93;68.17;;;;;;;;;;4972485;28;20452;-48
2023/10/12 08:14:18;;;;;;;228.98;67.35;;;;;;;;;;4965693;28;20462;-48
2023/10/12 08:16:43;;;;;;;228.55;67.53;;;;;;;;;;4972120;28;20191;-48
2023/10/12 08:19:23;;;;;;;228.25;66.47;;;;;;;;;;4972436;28;20181;-48
2023/10/12 08:21:58;;;;;;;229.63;67.57;;;;;;;;;;4962797;28;20262;-48
2023/10/12 08:24:24;;;;;;;231.03;69.67;;;;;;;;;;4973110;28;20780;-48
2023/10/12 08:26:57;;;;;;;229.57;66.87;;;;;;;;;;4976024;28;20458;-48
2023/10/12 08:31:54;;;;;;;231.27;68.83;;;;;;;;;;4975977;28;20892;-47
2023/10/12 08:37:17;;;;;;;229.30;67.17;;;;;;;;;;4975234;28;20816;-46
2023/10/12 08:39:52;;;;;;;231.97;69.40;;;;;;;;;;4975841;28;20874;-47
2023/10/12 08:44:48;;;;;;;227.90;66.20;;;;;;;;;;4968023;28;20215;-47
2023/10/12 08:47:25;;;;;;;229.43;66.80;;;;;;;;;;4975795;28;20205;-47
2023/10/12 08:50:01;;;;;;;227.53;62.63;;;;;;;;;;4976406;28;20425;-47
2023/10/12 08:52:31;;;;;;;230.67;67.30;;;;;;;;;;4984348;28;20416;-47
2023/10/12 08:54:58;;;;;;;228.23;64.80;;;;;;;;;;4983661;28;20446;-47
2023/10/12 08:57:35;;;;;;;228.13;64.97;;;;;;;;;;4976071;28;20410;-49
2023/10/12 09:02:52;;;;;;;229.63;64.43;;;;;;;;;;4975025;28;20216;-48
2023/10/12 09:05:28;;;;;;;228.13;62.87;;;;;;;;;;4975280;28;20426;-49
2023/10/12 09:13:35;;;;;;;229.97;66.40;;;;;;;;;;4974781;28;20410;-48
2023/10/12 09:16:09;;;;;;;232.77;69.17;;;;;;;;;;4974721;28;20458;-48
2023/10/12 09:18:56;;;;;;;230.03;66.57;;;;;;;;;;4975418;28;20399;-50
2023/10/12 09:26:46;;;;;;;229.33;66.03;;;;;;;;;;4975093;28;20454;-49
2023/10/12 09:29:21;;;;;;;227.20;64.67;;;;;;;;;;4974853;28;20419;-48
2023/10/12 09:34:42;;;;;;;227.57;63.33;;;;;;;;;;4973872;28;21018;-49
2023/10/12 09:37:08;;;;;;;230.23;67.03;;;;;;;;;;4969499;28;20904;-48
2023/10/12 09:39:35;;;;;;;232.50;69.23;;;;;;;;;;4984390;28;20508;-50
2023/10/12 09:42:19;;;;;;;232.07;68.67;;;;;;;;;;4974680;28;20425;-48
2023/10/12 09:44:47;;;;;;;230.17;66.03;;;;;;;;;;4974598;28;20441;-49
2023/10/12 09:47:23;;;;;;;230.03;66.07;;;;;;;;;;4974910;28;20461;-50
2023/10/12 09:49:54;;;;;;;230.40;67.20;;;;;;;;;;4974547;28;20489;-49
2023/10/12 09:52:22;;;;;;;231.43;68.23;;;;;;;;;;4974554;28;20486;-48
2023/10/12 09:54:53;;;;;;;231.33;68.47;;;;;;;;;;4974152;28;20435;-49
2023/10/12 09:57:24;;;;;;;231.07;70.90;;;;;;;;;;4974496;28;20456;-50
2023/10/12 09:59:53;;;;;;;231.20;69.13;;;;;;;;;;4970096;28;20425;-49
2023/10/12 10:02:27;;;;;;;230.30;67.60;;;;;;;;;;4974244;28;20821;-49
2023/10/12 10:05:01;;;;;;;230.00;64.90;;;;;;;;;;4973760;28;20467;-49
2023/10/12 10:07:32;;;;;;;233.17;70.90;;;;;;;;;;4973955;28;20469;-50
2023/10/12 10:10:00;;;;;;;230.67;68.43;;;;;;;;;;4974245;28;20417;-49
2023/10/12 10:12:35;;;;;;;230.17;66.13;;;;;;;;;;4973925;28;20509;-48
2023/10/12 10:15:10;;;;;;;230.60;68.90;;;;;;;;;;4973577;28;20912;-48
2023/10/12 10:17:46;;;;;;;232.03;69.43;;;;;;;;;;4974028;28;20752;-49
2023/10/12 10:23:02;;;;;;;233.23;70.83;;;;;;;;;;4966444;28;20427;-49
2023/10/12 10:25:35;;;;;;;229.63;66.63;;;;;;;;;;4973798;28;20439;-49
2023/10/12 10:28:13;;;;;;;231.27;70.77;;;;;;;;;;4973764;28;20603;-49
2023/10/12 10:30:42;;;;;;;233.50;70.27;;;;;;;;;;4973901;28;20783;-49
2023/10/12 10:33:13;;;;;;;230.63;67.43;;;;;;;;;;4973445;28;20459;-49
2023/10/12 10:36:17;;;;;;;232.33;71.13;;;;;;;;;;4973629;28;20414;-48
2023/10/12 10:41:23;;;;;;;232.63;71.60;;;;;;;;;;4973382;28;20885;-49
2023/10/12 10:43:51;;;;;;;229.37;68.27;;;;;;;;;;4965689;28;20444;-48
2023/10/12 10:46:17;;;;;;;231.47;70.33;;;;;;;;;;4973738;28;20417;-49
2023/10/12 10:48:53;;;;;;;228.67;66.67;;;;;;;;;;4973442;28;20463;-48
2023/10/12 10:51:24;;;;;;;233.07;71.27;;;;;;;;;;4973533;28;20413;-48
2023/10/12 10:53:52;;;;;;;234.97;74.73;;;;;;;;;;4965862;28;20885;-50
2023/10/12 10:56:32;;;;;;;232.17;71.23;;;;;;;;;;4973435;28;20410;-49
2023/10/12 10:58:59;;;;;;;229.43;66.53;;;;;;;;;;4971066;28;20899;-49
2023/10/12 11:01:26;;;;;;;232.13;70.07;;;;;;;;;;4973342;28;20415;-48
2023/10/12 11:03:52;;;;;;;231.93;70.50;;;;;;;;;;4972801;28;20929;-48
2023/10/12 11:06:21;;;;;;;232.93;73.87;;;;;;;;;;4973115;28;20444;-48
2023/10/12 11:09:02;;;;;;;231.00;70.13;;;;;;;;;;4965513;28;20553;-48
2023/10/12 11:11:37;;;;;;;231.87;71.33;;;;;;;;;;4973108;28;20424;-49
2023/10/12 11:14:03;;;;;;;229.60;66.33;;;;;;;;;;4972842;28;20503;-49
2023/10/12 11:16:29;;;;;;;236.33;76.67;;;;;;;;;;4972858;28;20417;-48
2023/10/12 11:18:55;;;;;;;233.73;73.30;;;;;;;;;;4973127;28;20402;-48
2023/10/12 11:21:28;;;;;;;232.10;72.00;;;;;;;;;;4972978;28;20499;-49
2023/10/12 11:23:57;;;;;;;229.90;68.90;;;;;;;;;;4972666;28;20426;-48
2023/10/12 11:26:23;;;;;;;230.23;66.83;;;;;;;;;;4973059;28;20520;-49
2023/10/12 11:29:04;;;;;;;231.57;69.23;;;;;;;;;;4972868;28;20840;-47
2023/10/12 11:31:33;;;;;;;228.33;67.90;;;;;;;;;;4972944;28;20419;-49
2023/10/12 11:33:59;;;;;;;233.50;72.73;;;;;;;;;;4972507;28;20441;-50
2023/10/12 11:36:26;;;;;;;232.93;71.87;;;;;;;;;;4972842;28;20425;-48
2023/10/12 11:39:03;;;;;;;232.80;73.93;;;;;;;;;;4972758;28;20463;-49
2023/10/12 11:41:29;;;;;;;233.33;72.10;;;;;;;;;;4972840;28;20409;-49
2023/10/12 11:44:05;;;;;;;231.97;71.77;;;;;;;;;;4972308;28;20490;-49
2023/10/12 11:46:41;;;;;;;233.97;74.00;;;;;;;;;;4972899;28;20514;-50
2023/10/12 11:49:10;;;;;;;234.40;75.97;;;;;;;;;;4972883;28;20753;-48
2023/10/12 11:51:40;;;;;;;233.90;75.80;;;;;;;;;;4972543;28;20461;-49
2023/10/12 11:54:08;;;;;;;233.33;72.20;;;;;;;;;;4972449;28;20480;-49
2023/10/12 11:56:43;;;;;;;233.37;74.07;;;;;;;;;;4972614;28;20883;-50
2023/10/12 11:59:13;;;;;;;235.67;76.17;;;;;;;;;;4976395;28;20412;-49
2023/10/12 12:01:40;;;;;;;231.30;71.93;;;;;;;;;;4976453;28;20496;-48
2023/10/12 12:04:10;;;;;;;230.80;72.07;;;;;;;;;;4976069;28;20414;-49
2023/10/12 12:06:36;;;;;;;235.27;75.67;;;;;;;;;;4976263;28;20426;-47
2023/10/12 12:09:07;;;;;;;232.33;71.97;;;;;;;;;;4976563;28;20456;-48
2023/10/12 12:11:37;;;;;;;233.10;75.73;;;;;;;;;;4976302;28;20426;-49
2023/10/12 12:14:06;;;;;;;233.20;73.30;;;;;;;;;;4976217;28;20451;-50
2023/10/12 12:16:34;;;;;;;234.87;75.50;;;;;;;;;;4976091;28;20416;-48
2023/10/12 12:19:00;;;;;;;229.90;69.47;;;;;;;;;;4976216;28;20451;-50
2023/10/12 12:21:30;;;;;;;231.70;72.80;;;;;;;;;;4976075;28;20514;-48
2023/10/12 12:24:03;;;;;;;231.67;70.77;;;;;;;;;;4975621;28;20829;-47
2023/10/12 12:26:33;;;;;;;233.73;74.83;;;;;;;;;;4976157;28;20411;-49
2023/10/12 12:29:03;;;;;;;233.03;74.40;;;;;;;;;;4975995;28;20406;-50
2023/10/12 12:31:32;;;;;;;233.40;74.77;;;;;;;;;;4990689;28;20450;-50
2023/10/12 12:33:58;;;;;;;236.03;78.73;;;;;;;;;;4979818;28;20427;-49
2023/10/12 12:36:24;;;;;;;230.27;70.30;;;;;;;;;;4975894;28;20402;-50
2023/10/12 12:39:09;;;;;;;230.73;72.77;;;;;;;;;;4975818;28;20407;-49
2023/10/12 12:41:36;;;;;;;232.50;71.67;;;;;;;;;;4975865;28;20403;-49
2023/10/12 12:44:02;;;;;;;231.83;72.23;;;;;;;;;;4975318;28;20427;-48
2023/10/12 12:46:32;;;;;;;231.87;72.70;;;;;;;;;;4975700;28;21002;-50
2023/10/12 12:48:58;;;;;;;233.67;75.00;;;;;;;;;;4975596;28;20449;-48
2023/10/12 12:51:24;;;;;;;232.53;75.53;;;;;;;;;;4975680;28;20398;-49
2023/10/12 12:53:52;;;;;;;230.97;71.67;;;;;;;;;;4975164;28;20427;-50
2023/10/12 12:56:19;;;;;;;231.70;72.07;;;;;;;;;;4975519;28;20410;-50
2023/10/12 12:58:49;;;;;;;232.03;73.27;;;;;;;;;;4975551;28;20940;-50
2023/10/12 13:01:17;;;;;;;232.83;72.07;;;;;;;;;;4975543;28;20430;-49
2023/10/12 13:03:43;;;;;;;233.83;73.33;;;;;;;;;;4974941;28;20441;-50
2023/10/12 13:06:09;;;;;;;235.37;75.20;;;;;;;;;;4975053;28;20440;-50
2023/10/12 13:08:35;;;;;;;235.57;73.67;;;;;;;;;;4974462;28;20487;-49
2023/10/12 13:11:04;;;;;;;236.10;76.13;;;;;;;;;;4974948;28;20410;-50
2023/10/12 13:13:33;;;;;;;233.97;73.67;;;;;;;;;;4979224;28;20964;-49
2023/10/12 13:15:59;;;;;;;233.97;73.27;;;;;;;;;;4979324;28;20504;-50
2023/10/12 13:18:29;;;;;;;234.77;75.10;;;;;;;;;;4975234;28;20418;-49
2023/10/12 13:20:57;;;;;;;229.67;67.80;;;;;;;;;;4975100;28;20503;-49
2023/10/12 13:23:23;;;;;;;232.63;72.20;;;;;;;;;;4974742;28;20442;-49
2023/10/12 13:25:50;;;;;;;231.93;70.70;;;;;;;;;;4975022;28;20471;-49
2023/10/12 13:28:16;;;;;;;228.63;67.50;;;;;;;;;;4974955;28;20468;-50
2023/10/12 13:30:42;;;;;;;232.97;72.83;;;;;;;;;;4975120;28;20400;-49
2023/10/12 13:33:11;;;;;;;233.33;72.87;;;;;;;;;;4974470;28;20508;-49
2023/10/12 13:38:09;;;;;;;233.43;74.63;;;;;;;;;;4975040;28;20561;-49
2023/10/12 13:40:38;;;;;;;233.83;74.80;;;;;;;;;;4970884;28;20482;-50
2023/10/12 13:43:08;;;;;;;240.77;80.33;;;;;;;;;;4971079;28;20421;-48
2023/10/12 13:45:34;;;;;;;233.00;72.43;;;;;;;;;;4974588;28;20424;-49
2023/10/12 13:48:01;;;;;;;231.90;69.27;;;;;;;;;;4974481;28;20465;-49
2023/10/12 13:50:27;;;;;;;234.20;74.30;;;;;;;;;;4974682;28;20895;-49
2023/10/12 13:52:53;;;;;;;235.40;72.13;;;;;;;;;;4974419;28;20453;-49
2023/10/12 13:55:19;;;;;;;234.77;74.90;;;;;;;;;;4974995;28;20443;-49
2023/10/12 13:57:55;;;;;;;234.13;73.90;;;;;;;;;;4974813;28;20914;-49
2023/10/12 14:00:33;;;;;;;239.63;78.17;;;;;;;;;;4964812;28;20431;-50
2023/10/12 14:03:10;;;;;;;237.63;74.87;;;;;;;;;;4970157;28;20419;-48
2023/10/12 14:05:40;;;;;;;235.17;72.73;;;;;;;;;;4972145;28;20511;-50
2023/10/12 14:08:08;;;;;;;236.03;73.87;;;;;;;;;;4964888;28;20467;-49
2023/10/12 14:10:38;;;;;;;229.37;68.83;;;;;;;;;;4971360;28;20423;-49
2023/10/12 14:13:04;;;;;;;237.10;76.43;;;;;;;;;;4971723;28;20414;-49
2023/10/12 14:15:30;;;;;;;239.90;79.60;;;;;;;;;;4966521;28;20432;-49
2023/10/12 14:17:56;;;;;;;237.63;76.93;;;;;;;;;;4968069;28;20423;-49
2023/10/12 14:20:29;;;;;;;235.93;80.47;;;;;;;;;;4965350;28;20491;-47
2023/10/12 14:22:58;;;;;;;236.77;75.70;;;;;;;;;;4973327;28;20430;-49
2023/10/12 14:25:28;;;;;;;235.37;75.63;;;;;;;;;;4971962;28;20456;-49
2023/10/12 14:28:02;;;;;;;236.40;76.67;;;;;;;;;;4971146;28;20777;-50
2023/10/12 14:30:28;;;;;;;236.60;81.20;;;;;;;;;;4971644;28;20484;-49
2023/10/12 14:33:02;;;;;;;237.93;80.20;;;;;;;;;;4970262;28;20431;-49
2023/10/12 14:35:28;;;;;;;232.87;75.07;;;;;;;;;;4973643;28;20899;-48
2023/10/12 14:37:58;;;;;;;236.40;78.77;;;;;;;;;;4973733;28;20411;-49
2023/10/12 14:40:33;;;;;;;232.53;71.93;;;;;;;;;;4972282;28;20454;-48
2023/10/12 14:43:06;;;;;;;239.13;77.77;;;;;;;;;;4973615;28;20406;-49
2023/10/12 14:45:38;;;;;;;233.27;78.10;;;;;;;;;;4973560;28;20776;-49
2023/10/12 14:48:10;;;;;;;230.73;69.83;;;;;;;;;;4973364;28;20549;-49
2023/10/12 14:50:43;;;;;;;235.67;78.17;;;;;;;;;;4972030;28;20429;-49
2023/10/12 14:53:09;;;;;;;237.60;77.57;;;;;;;;;;4968287;28;20795;-48
2023/10/12 14:55:36;;;;;;;234.73;73.37;;;;;;;;;;4973130;28;20409;-48
2023/10/12 14:58:07;;;;;;;231.73;71.83;;;;;;;;;;4973205;28;20504;-49
2023/10/12 15:00:33;;;;;;;232.47;71.53;;;;;;;;;;4972990;28;20967;-47
2023/10/12 15:02:59;;;;;;;237.23;73.60;;;;;;;;;;4970128;28;20513;-50
2023/10/12 15:05:29;;;;;;;234.50;72.67;;;;;;;;;;4969152;28;20850;-49
2023/10/12 15:07:57;;;;;;;234.67;73.10;;;;;;;;;;4968063;28;20456;-48
2023/10/12 15:10:25;;;;;;;237.70;76.87;;;;;;;;;;4972847;28;20492;-49
2023/10/12 15:12:51;;;;;;;236.30;74.53;;;;;;;;;;4964163;28;20416;-48
2023/10/12 15:15:26;;;;;;;228.73;64.70;;;;;;;;;;4959761;28;20492;-47
2023/10/12 15:17:52;;;;;;;228.50;64.63;;;;;;;;;;4968696;28;21012;-49
2023/10/12 15:20:22;;;;;;;231.87;71.47;;;;;;;;;;4973076;28;20491;-49
2023/10/12 15:22:48;;;;;;;232.87;69.13;;;;;;;;;;4972712;28;20408;-49
2023/10/12 15:25:16;;;;;;;232.73;70.47;;;;;;;;;;4965630;28;20439;-50
2023/10/12 15:27:44;;;;;;;235.10;72.73;;;;;;;;;;4969282;28;20564;-49
2023/10/12 15:30:10;;;;;;;229.53;65.57;;;;;;;;;;4972986;28;20440;-49
2023/10/12 15:32:40;;;;;;;230.27;65.73;;;;;;;;;;4972191;28;20422;-48
2023/10/12 15:35:10;;;;;;;230.87;68.60;;;;;;;;;;4972641;28;20424;-48
2023/10/12 15:37:40;;;;;;;230.53;67.37;;;;;;;;;;4972974;28;20517;-49
2023/10/12 15:40:08;;;;;;;231.73;68.13;;;;;;;;;;4972895;28;20417;-48
2023/10/12 15:42:35;;;;;;;230.73;66.23;;;;;;;;;;4990786;28;20415;-49
2023/10/12 15:45:01;;;;;;;232.47;68.47;;;;;;;;;;4972707;28;20423;-49
2023/10/12 15:47:30;;;;;;;232.33;68.13;;;;;;;;;;4972688;28;20733;-50
2023/10/12 15:49:57;;;;;;;237.67;73.50;;;;;;;;;;4969923;28;20500;-50
2023/10/12 15:52:23;;;;;;;231.10;66.57;;;;;;;;;;4966777;28;20511;-50
2023/10/12 15:54:49;;;;;;;231.37;67.40;;;;;;;;;;4972500;28;20841;-49
2023/10/12 15:57:15;;;;;;;230.07;67.03;;;;;;;;;;4972754;28;20504;-50
2023/10/12 15:59:44;;;;;;;232.20;68.77;;;;;;;;;;4972654;28;20516;-48
2023/10/12 16:02:10;;;;;;;233.83;69.97;;;;;;;;;;4972358;28;20974;-49
2023/10/12 16:04:36;;;;;;;233.37;68.13;;;;;;;;;;4972405;28;20432;-49